Flight Track Log - Related Links

Times and Time Zones

All times are in EDT time to prevent confusion due to time zone crossing. See the AAL1358 flight status page for this flight to view local times or setup timezone preferences in your user account.

Time Position Orientation Groundspeed Altitude Reporting Facility
EDT Latitude Longitude Course Direction KTS MPH feet Rate Location/Type
Wed 07:26:00 PM 47.4167 -121.7401 90° East  Level FlightAware Approximate
Wed 07:27:00 PM 47.4167 -121.5523 90° East  Level FlightAware Approximate
Wed 07:27:17 PM 47.6010 -122.1880 90° East 277 319 8,600  Level FlightAware ADS-B
Wed 07:27:32 PM 47.5930 -122.1670 119° Southeast 282 325 8,800 240 Climbing FlightAware ADS-B
Wed 07:28:07 PM 47.5730 -122.1110 118° Southeast 282 325 8,800  Level FlightAware ADS-B
Wed 07:28:37 PM 47.5580 -122.0680 117° Southeast 282 325 8,800  Level FlightAware ADS-B
Wed 07:29:07 PM 47.5420 -122.0240 118° Southeast 282 325 8,800  Level FlightAware ADS-B
Wed 07:29:27 PM 47.5320 -121.9950 117° Southeast 282 325 8,800 3,086 Level FlightAware ADS-B
Wed 07:30:17 PM 47.4760 -121.8500 120° Southeast 360 414 12,400 3,347 Climbing FlightAware ADS-B
Wed 07:31:02 PM 47.4400 -121.7480 118° Southeast 379 436 14,100 2,471 Climbing FlightAware ADS-B
Wed 07:31:42 PM 47.4280 -121.6420 99° East 396 456 15,900 1,600 Climbing FlightAware ADS-B
Wed 07:32:17 PM 47.4280 -121.5580 90° East 400 460 16,100 1,835 Climbing FlightAware ADS-B
Wed 07:33:07 PM 47.4260 -121.4050 91° East 419 482 18,500 1,600 Climbing FlightAware ADS-B
Wed 07:33:47 PM 47.4260 -121.3080 90° East 419 482 18,500 2,667 Level FlightAware ADS-B
Wed 07:34:32 PM 47.4210 -121.1500 93° East 22,400 3,789 Climbing FlightAware ADS-B
Wed 07:35:22 PM 47.4180 -120.9920 92° East 452 520 24,500 2,147 Climbing FlightAware ADS-B
Wed 07:36:07 PM 47.4150 -120.8490 92° East 464 534 25,800 1,600 Climbing FlightAware ADS-B
Wed 07:36:52 PM 47.4120 -120.7060 92° East 473 544 26,900 1,553 Climbing FlightAware ADS-B
Wed 07:37:32 PM 47.4090 -120.5760 92° East 477 549 28,000 1,650 Climbing FlightAware ADS-B
Wed 07:38:12 PM 47.4070 -120.4470 91° East 481 554 29,100 1,725 Climbing FlightAware ADS-B
Wed 07:38:52 PM 47.4030 -120.3170 93° East 481 554 30,300 1,765 Climbing FlightAware ADS-B
Wed 07:39:37 PM 47.3990 -120.1660 92° East 481 554 31,600 1,800 Climbing FlightAware ADS-B
Wed 07:40:22 PM 47.3950 -120.0220 92° East 472 543 33,000 1,624 Climbing FlightAware ADS-B
Wed 07:41:02 PM 47.3920 -119.8970 92° East 472 543 33,900 1,425 Climbing FlightAware ADS-B
Wed 07:41:42 PM 47.3880 -119.7660 93° East 472 543 34,900 1,412 Climbing FlightAware ADS-B
Wed 07:42:27 PM 47.3830 -119.6180 93° East 470 541 35,900 1,271 Climbing FlightAware ADS-B
Wed 07:43:07 PM 47.3790 -119.4940 93° East 468 539 36,700 825 Climbing FlightAware ADS-B
Wed 07:43:47 PM 47.3760 -119.3730 92° East 467 537 37,000 225 Climbing FlightAware ADS-B
Wed 07:44:27 PM 47.3740 -119.2650 92° East 467 537 37,000  Level FlightAware ADS-B
Wed 07:45:07 PM 47.3710 -119.1570 92° East 467 537 37,000  Level FlightAware ADS-B
Wed 07:45:57 PM 47.3680 -119.0210 92° East 467 537 37,000  Level FlightAware ADS-B
Wed 07:46:27 PM 47.3660 -118.9400 92° East 467 537 37,000  Level FlightAware ADS-B
Wed 07:47:17 PM 47.3630 -118.8040 92° East 467 537 37,000  Level FlightAware ADS-B
Wed 07:47:57 PM 47.3600 -118.6960 92° East 467 537 37,000  Level FlightAware ADS-B
Wed 07:48:37 PM 47.3570 -118.5870 92° East 467 537 37,000  Level FlightAware ADS-B
Wed 07:49:27 PM 47.3540 -118.4520 92° East 467 537 37,000  Level FlightAware ADS-B
Wed 07:50:07 PM 47.3520 -118.3440 92° East 467 537 37,000  Level FlightAware ADS-B
Wed 07:50:47 PM 47.3490 -118.2350 92° East 467 537 37,000  Level FlightAware ADS-B
Wed 07:51:27 PM 47.3460 -118.1270 92° East 467 537 37,000  Level FlightAware ADS-B
Wed 07:52:07 PM 47.3440 -118.0190 92° East 467 537 37,000  Level FlightAware ADS-B
Wed 07:52:57 PM 47.3410 -117.8830 92° East 467 537 37,000 1,562 Level FlightAware ADS-B
Wed 07:53:20 PM 47.4322 -117.5653 92° East 468 539 38,900 2,000 Climbing Salt Lake Center
Wed 07:53:57 PM 47.4347 -117.4500 88° East 471 542 39,000 61 Climbing Seattle Center
Wed 07:54:58 PM 47.4378 -117.2614 89° East 467 537 39,000  Level Seattle Center
Wed 07:55:58 PM 47.4419 -117.0383 88° East 466 536 39,000  Level Seattle Center
Wed 07:56:59 PM 47.4450 -116.8517 89° East 466 536 39,000  Level Seattle Center
Wed 07:58:00 PM 47.4478 -116.6617 89° East 468 539 39,000  Level Seattle Center
Wed 07:59:01 PM 47.4503 -116.4689 89° East 472 543 39,000  Level Seattle Center
Wed 08:00:02 PM 47.4517 -116.2767 89° East 470 541 39,000 -49 Level Seattle Center
Wed 08:01:03 PM 47.4536 -116.0833 89° East 473 544 38,900  Descending Seattle Center
Wed 08:02:04 PM 47.4553 -115.8889 89° East 474 545 39,000 49 Climbing Seattle Center
Wed 08:03:05 PM 47.4572 -115.6944 89° East 469 540 39,000 -49 Level Seattle Center
Wed 08:04:06 PM 47.4583 -115.5075 89° East 469 540 38,900  Descending Seattle Center
Wed 08:05:06 PM 47.4625 -115.2781 88° East 468 539 39,000  Climbing Seattle Center
Wed 08:06:07 PM 47.4647 -115.0847 89° East 471 542 38,900  Descending Seattle Center
Wed 08:07:08 PM 47.4664 -114.8933 89° East 469 540 39,000  Climbing Seattle Center
Wed 08:08:09 PM 47.4686 -114.7019 89° East 470 541 38,900  Descending Seattle Center
Wed 08:08:49 PM 47.4689 -114.5881 90° East 469 540 39,000  Climbing Salt Lake Center
Wed 08:09:51 PM 47.4711 -114.3992 89° East 465 535 38,900  Descending Salt Lake Center
Wed 08:10:52 PM 47.4717 -114.2083 90° East 469 540 39,000 49 Climbing Salt Lake Center
Wed 08:11:54 PM 47.4731 -113.9822 89° East 466 536 39,000  Level Salt Lake Center
Wed 08:12:56 PM 47.4725 -113.7892 90° East 471 542 39,000  Level Salt Lake Center
Wed 08:13:58 PM 47.4722 -113.5994 90° East 468 539 39,000  Level Salt Lake Center
Wed 08:15:00 PM 47.4725 -113.4100 90° East 465 535 39,000  Level Salt Lake Center
Wed 08:16:02 PM 47.4708 -113.2203 91° East 465 535 39,000 -48 Level Salt Lake Center
Wed 08:17:04 PM 47.4703 -112.9897 90° East 470 541 38,900  Descending Salt Lake Center
Wed 08:18:06 PM 47.4700 -112.7919 90° East 475 547 39,000  Climbing Salt Lake Center
Wed 08:19:07 PM 47.4681 -112.5992 91° East 472 543 38,900 -49 Descending Salt Lake Center
Wed 08:20:09 PM 47.4667 -112.4094 91° East 466 536 38,900 48 Level Salt Lake Center
Wed 08:21:11 PM 47.4633 -112.2192 91° East 465 535 39,000 48 Climbing Salt Lake Center
Wed 08:22:13 PM 47.4597 -112.0272 92° East 468 539 39,000  Level Salt Lake Center
Wed 08:23:15 PM 47.4578 -111.8361 91° East 468 539 39,000  Level Salt Lake Center
Wed 08:24:17 PM 47.4533 -111.6067 92° East 468 539 39,000 -48 Level Salt Lake Center
Wed 08:25:19 PM 47.4494 -111.4153 92° East 473 544 38,900  Descending Salt Lake Center
Wed 08:26:21 PM 47.4442 -111.2269 92° East 473 544 39,000  Climbing Salt Lake Center
Wed 08:27:23 PM 47.4383 -111.0378 93° East 471 542 38,900  Descending Salt Lake Center
Wed 08:28:25 PM 47.4297 -110.8094 93° East 469 540 39,000 48 Climbing Salt Lake Center
Wed 08:29:27 PM 47.4231 -110.6178 93° East 470 541 39,000 -49 Level Salt Lake Center
Wed 08:30:28 PM 47.4150 -110.4261 93° East 470 541 38,900 -49 Descending Salt Lake Center
Wed 08:31:30 PM 47.4078 -110.2339 93° East 472 543 38,900  Level Salt Lake Center
Wed 08:32:32 PM 47.4011 -110.0431 93° East 469 540 38,900 48 Level Salt Lake Center
Wed 08:33:34 PM 47.3925 -109.8528 94° East 468 539 39,000  Climbing Salt Lake Center
Wed 08:34:36 PM 47.3817 -109.6256 94° East 466 536 38,900  Descending Salt Lake Center
Wed 08:35:38 PM 47.3731 -109.4339 94° East 469 540 39,000  Climbing Salt Lake Center
Wed 08:36:40 PM 47.3647 -109.2419 94° East 472 543 38,900 -48 Descending Salt Lake Center
Wed 08:37:42 PM 47.3542 -109.0506 95° East 470 541 38,900 49 Level Salt Lake Center
Wed 08:38:43 PM 47.3450 -108.8583 94° East 472 543 39,000  Climbing Salt Lake Center
Wed 08:39:45 PM 47.3367 -108.6658 94° East 473 544 38,900  Descending Salt Lake Center
Wed 08:40:47 PM 47.3236 -108.4367 95° East 471 542 39,000 48 Climbing Salt Lake Center
Wed 08:41:49 PM 47.3119 -108.2464 95° East 469 540 39,000  Level Salt Lake Center
Wed 08:42:51 PM 47.3003 -108.0419 95° East 470 541 39,000  Level Salt Lake Center
Wed 08:43:53 PM 47.2892 -107.8589 95° East 469 540 39,000  Level Salt Lake Center
Wed 08:44:54 PM 47.2758 -107.6433 95° East 472 543 39,000  Level Salt Lake Center
Wed 08:45:56 PM 47.2639 -107.4603 95° East 471 542 39,000  Level Salt Lake Center
Wed 08:46:58 PM 47.2508 -107.2747 96° East 475 547 39,000  Level Salt Lake Center
Wed 08:48:00 PM 47.2372 -107.0594 95° East 473 544 39,000  Level Salt Lake Center
Wed 08:49:02 PM 47.2242 -106.8742 96° East 474 545 39,000  Level Salt Lake Center
Wed 08:50:03 PM 47.2081 -106.6581 96° East 476 548 39,000  Level Salt Lake Center
Wed 08:51:05 PM 47.1950 -106.4731 96° East 476 548 39,000  Level Salt Lake Center
Wed 08:52:07 PM 47.1781 -106.2542 96° East 481 554 39,000 -49 Level Salt Lake Center
Wed 08:53:08 PM 47.1628 -106.0631 97° East 482 555 38,900 -49 Descending Salt Lake Center
Wed 08:54:10 PM 47.1483 -105.8692 96° East 482 555 38,900  Level Salt Lake Center
Wed 08:55:12 PM 47.1317 -105.6731 97° East 484 557 38,900  Level Salt Lake Center
Wed 08:56:14 PM 47.1158 -105.4794 97° East 483 556 38,900 49 Level Salt Lake Center
Wed 08:57:15 PM 47.0989 -105.2864 97° East 480 552 39,000  Climbing Salt Lake Center
Wed 08:58:17 PM 47.0842 -105.0944 96° East 480 552 38,900  Descending Salt Lake Center
Wed 08:59:18 PM 47.0625 -104.8644 98° East 477 549 39,000 49 Climbing Salt Lake Center
Wed 09:00:20 PM 47.0464 -104.6753 97° East 473 544 39,000  Level Salt Lake Center
Wed 09:01:22 PM 47.0289 -104.4853 98° East 474 545 39,000 -49 Level Salt Lake Center
Wed 09:02:23 PM 47.0114 -104.2944 98° East 475 547 38,900  Descending Salt Lake Center
Wed 09:03:25 PM 46.9942 -104.1061 98° East 473 544 39,000 48 Climbing Salt Lake Center
Wed 09:04:27 PM 46.9761 -103.9161 98° East 473 544 39,000 -49 Level Salt Lake Center
Wed 09:05:28 PM 46.9586 -103.7250 98° East 476 548 38,900 -49 Descending Salt Lake Center
Wed 09:06:30 PM 46.9361 -103.5008 98° East 473 544 38,900 49 Level Salt Lake Center
Wed 09:07:31 PM 46.9172 -103.3064 98° East 477 549 39,000 61 Climbing Salt Lake Center
Wed 09:08:08 PM 46.9072 -103.1958 98° East 475 547 39,000 -61 Level Minneapolis Center
Wed 09:09:10 PM 46.8861 -103.0067 99° East 475 547 38,900  Descending Minneapolis Center
Wed 09:10:12 PM 46.8664 -102.8142 98° East 479 551 39,000  Climbing Minneapolis Center
Wed 09:11:14 PM 46.8217 -102.6283 109° East 487 560 38,900  Descending Minneapolis Center
Wed 09:12:16 PM 46.7533 -102.4119 115° Southeast 492 566 39,000 48 Climbing Minneapolis Center
Wed 09:13:18 PM 46.7094 -102.2644 113° Southeast 493 567 39,000 -48 Level Minneapolis Center
Wed 09:14:20 PM 46.6419 -102.0478 114° Southeast 493 567 38,900 -48 Descending Minneapolis Center
Wed 09:15:22 PM 46.5858 -101.8658 114° Southeast 494 568 38,900 48 Level Minneapolis Center
Wed 09:16:24 PM 46.5297 -101.6847 114° Southeast 494 568 39,000 48 Climbing Minneapolis Center
Wed 09:17:26 PM 46.4706 -101.5050 115° Southeast 491 565 39,000  Level Minneapolis Center
Wed 09:18:28 PM 46.4017 -101.2906 115° Southeast 490 564 39,000  Level Minneapolis Center
Wed 09:19:30 PM 46.3461 -101.1086 114° Southeast 491 565 39,000  Level Minneapolis Center
Wed 09:20:32 PM 46.2883 -100.9314 115° Southeast 488 562 39,000  Level Minneapolis Center
Wed 09:21:46 PM 46.2306 -100.7517 115° Southeast 491 565 39,000  Level Minneapolis Center
Wed 09:22:48 PM 46.1594 -100.5375 116° Southeast 493 567 39,000  Level Minneapolis Center
Wed 09:23:50 PM 46.1011 -100.3564 115° Southeast 496 571 39,000  Level Minneapolis Center
Wed 09:24:52 PM 46.0300 -100.1458 116° Southeast 487 560 39,000  Level Minneapolis Center
Wed 09:25:54 PM 45.9706 -99.9681 116° Southeast 491 565 39,000  Level Minneapolis Center
Wed 09:26:56 PM 45.9119 -99.7922 116° Southeast 487 560 39,000  Level Minneapolis Center
Wed 09:27:58 PM 45.8519 -99.6172 116° Southeast 486 559 39,000  Level Minneapolis Center
Wed 09:29:00 PM 45.7945 -99.4541 117° Southeast  Level FlightAware Approximate
Wed 09:30:01 PM 45.7331 -99.2681 117° Southeast 486 559 39,000  Level Minneapolis Center
Wed 09:31:03 PM 45.6731 -99.0936 116° Southeast 487 560 39,000  Level Minneapolis Center
Wed 09:32:05 PM 45.6119 -98.9183 116° Southeast 489 563 39,000  Level Minneapolis Center
Wed 09:33:07 PM 45.5500 -98.7450 117° Southeast 490 564 39,000  Level Minneapolis Center
Wed 09:34:08 PM 45.4767 -98.5347 116° Southeast 490 564 39,000  Level Minneapolis Center
Wed 09:35:10 PM 45.4153 -98.3608 117° Southeast 490 564 39,000  Level Minneapolis Center
Wed 09:36:12 PM 45.3650 -98.1800 112° Southeast 491 565 39,000  Level Minneapolis Center
Wed 09:37:13 PM 45.3197 -98.0150 111° Southeast 493 567 39,000  Level Minneapolis Center
Wed 09:38:15 PM 45.2597 -97.7978 111° Southeast 494 568 39,000  Level Minneapolis Center
Wed 09:39:16 PM 45.2086 -97.6169 112° Southeast 495 570 39,000  Level Minneapolis Center
Wed 09:40:18 PM 45.1567 -97.4342 112° Southeast 498 573 39,000  Level Minneapolis Center
Wed 09:41:19 PM 45.1036 -97.2528 112° Southeast 499 574 39,000  Level Minneapolis Center
Wed 09:42:21 PM 45.0506 -97.0694 112° Southeast 503 579 39,000  Level Minneapolis Center
Wed 09:43:22 PM 44.9972 -96.8850 112° Southeast 506 582 39,000  Level Minneapolis Center
Wed 09:44:24 PM 44.9428 -96.7003 113° Southeast 509 586 39,000  Level Minneapolis Center
Wed 09:45:25 PM 44.8889 -96.5144 112° Southeast 510 587 39,000  Level Minneapolis Center
Wed 09:46:27 PM 44.8333 -96.3292 113° Southeast 511 588 39,000  Level Minneapolis Center
Wed 09:47:28 PM 44.7781 -96.1442 113° Southeast 511 588 39,000  Level Minneapolis Center
Wed 09:48:30 PM 44.7111 -95.9228 113° Southeast 510 587 39,000  Level Minneapolis Center
Wed 09:49:31 PM 44.6561 -95.7386 113° Southeast 509 586 39,000  Level Minneapolis Center
Wed 09:50:33 PM 44.5997 -95.5558 113° Southeast 509 586 39,000  Level Minneapolis Center
Wed 09:51:34 PM 44.5433 -95.3714 113° Southeast 511 588 39,000  Level Minneapolis Center
Wed 09:52:35 PM 44.4850 -95.1886 114° Southeast 513 590 39,000  Level Minneapolis Center
Wed 09:53:37 PM 44.3992 -95.0347 128° Southeast 501 577 39,000  Level Minneapolis Center
Wed 09:54:38 PM 44.2978 -94.8983 136° Southeast 503 579 39,000  Level Minneapolis Center
Wed 09:55:40 PM 44.2347 -94.7214 116° Southeast 509 586 39,000  Level Minneapolis Center
Wed 09:56:41 PM 44.1822 -94.5203 110° East 513 590 39,000  Level Minneapolis Center
Wed 10:02:52 PM 43.8680 -93.3760 110° East 513 590 39,000  Level FlightAware ADS-B
Wed 10:03:37 PM 43.8280 -93.2330 111° Southeast 515 593 39,000 -67 Level FlightAware ADS-B
Wed 10:04:22 PM 43.7880 -93.0930 112° Southeast 516 594 38,900 -494 Descending FlightAware ADS-B
Wed 10:05:02 PM 43.7540 -92.9730 111° Southeast 513 590 38,300 -975 Descending FlightAware ADS-B
Wed 10:05:42 PM 43.7170 -92.8450 112° Southeast 511 588 37,600 -975 Descending FlightAware ADS-B
Wed 10:06:22 PM 43.6830 -92.7290 112° Southeast 518 596 37,000 -918 Descending FlightAware ADS-B
Wed 10:07:07 PM 43.6430 -92.5890 112° Southeast 516 594 36,300 -1,000 Descending FlightAware ADS-B
Wed 10:07:52 PM 43.6020 -92.4490 112° Southeast 511 588 35,500 -918 Descending FlightAware ADS-B
Wed 10:08:32 PM 43.5670 -92.3290 112° Southeast 515 593 35,000 -375 Descending FlightAware ADS-B
Wed 10:09:12 PM 43.5330 -92.2130 112° Southeast 513 590 35,000  Level FlightAware ADS-B
Wed 10:09:57 PM 43.4920 -92.0740 112° Southeast 514 592 35,000 -424 Level FlightAware ADS-B
Wed 10:10:37 PM 43.4570 -91.9560 112° Southeast 512 589 34,400 -988 Descending FlightAware ADS-B
Wed 10:11:22 PM 43.4140 -91.8150 113° Southeast 507 583 33,600 -1,271 Descending FlightAware ADS-B
Wed 10:12:02 PM 43.3800 -91.6990 112° Southeast 500 575 32,600 -1,950 Descending FlightAware ADS-B
Wed 10:12:42 PM 43.3440 -91.5810 113° Southeast 501 577 31,000 -1,129 Descending FlightAware ADS-B
Wed 10:13:27 PM 43.3060 -91.4550 112° Southeast 502 578 31,000  Level FlightAware ADS-B
Wed 10:14:07 PM 43.2670 -91.3290 113° Southeast 504 580 31,000  Level FlightAware ADS-B
Wed 10:14:47 PM 43.2330 -91.2160 112° Southeast 502 578 31,000  Level FlightAware ADS-B
Wed 10:15:32 PM 43.1920 -91.0830 113° Southeast 497 572 31,000  Level FlightAware ADS-B
Wed 10:16:17 PM 43.1530 -90.9580 113° Southeast 496 571 31,000  Level FlightAware ADS-B
Wed 10:16:52 PM 43.1200 -90.8510 113° Southeast 498 573 31,000  Level FlightAware ADS-B
Wed 10:17:37 PM 43.0820 -90.7300 113° Southeast 499 574 31,000  Level FlightAware ADS-B
Wed 10:18:22 PM 43.0390 -90.5920 113° Southeast 501 577 31,000  Level FlightAware ADS-B
Wed 10:18:57 PM 43.0080 -90.4930 113° Southeast 502 578 31,000 -141 Level FlightAware ADS-B
Wed 10:19:47 PM 42.9610 -90.3460 114° Southeast 502 578 30,800 -600 Descending FlightAware ADS-B
Wed 10:20:27 PM 42.9240 -90.2310 114° Southeast 489 563 30,100 -1,050 Descending FlightAware ADS-B
Wed 10:21:07 PM 42.8880 -90.1170 113° Southeast 489 563 29,400 -1,200 Descending FlightAware ADS-B
Wed 10:21:52 PM 42.8490 -89.9950 114° Southeast 479 551 28,400 -1,341 Descending FlightAware ADS-B
Wed 10:22:32 PM 42.8160 -89.8940 114° Southeast 469 540 27,500 -2,047 Descending FlightAware ADS-B
Wed 10:23:17 PM 42.7740 -89.7640 114° Southeast 455 524 25,500 -2,541 Descending FlightAware ADS-B
Wed 10:23:57 PM 42.7400 -89.6610 114° Southeast 443 510 23,900 -2,400 Descending FlightAware ADS-B
Wed 10:24:37 PM 42.7070 -89.5580 114° Southeast 436 502 22,300 -2,400 Descending FlightAware ADS-B
Wed 10:25:22 PM 42.6710 -89.4460 114° Southeast 425 489 20,500 -2,259 Descending FlightAware ADS-B
Wed 10:26:02 PM 42.6400 -89.3540 115° Southeast 415 478 19,100 -2,259 Descending FlightAware ADS-B
Wed 10:26:47 PM 42.6050 -89.2470 114° Southeast 404 465 17,300 -2,400 Descending FlightAware ADS-B
Wed 10:27:27 PM 42.5740 -89.1540 114° Southeast 397 457 15,700 -2,025 Descending FlightAware ADS-B
Wed 10:28:07 PM 42.5460 -89.0650 113° Southeast 381 438 14,600 -1,200 Descending FlightAware ADS-B
Wed 10:28:47 PM 42.5210 -88.9820 112° Southeast 349 402 14,100 -1,271 Descending FlightAware ADS-B
Wed 10:29:32 PM 42.4930 -88.8890 112° Southeast 342 394 12,800 -1,600 Descending FlightAware ADS-B
Wed 10:30:17 PM 42.4680 -88.8050 112° Southeast 332 382 11,700 -1,412 Descending FlightAware ADS-B
Wed 10:30:57 PM 42.4440 -88.7260 112° Southeast 328 377 10,800 -675 Descending FlightAware ADS-B
Wed 10:31:37 PM 42.4210 -88.6510 113° Southeast 329 379 10,800 -212 Level FlightAware ADS-B
Wed 10:32:22 PM 42.3940 -88.5620 112° Southeast 366 421 10,500 -635 Descending FlightAware ADS-B
Wed 10:33:02 PM 42.3680 -88.4760 112° Southeast 369 425 9,900 -600 Descending FlightAware ADS-B
Wed 10:33:32 PM 42.3490 -88.4120 112° Southeast 365 420 9,800 -109 Descending FlightAware ADS-B
Wed 10:33:57 PM 42.3260 -88.3630 122° Southeast 361 415 9,800  Level FlightAware ADS-B
Wed 10:34:12 PM 42.3110 -88.3380 129° Southeast 362 417 9,800  Level FlightAware ADS-B
Wed 10:34:42 PM 42.2790 -88.2860 130° Southeast 363 418 9,800  Level FlightAware ADS-B
Wed 10:35:07 PM 42.2520 -88.2400 128° Southeast 363 418 9,800  Level FlightAware ADS-B
Wed 10:35:32 PM 42.2270 -88.1990 129° Southeast 343 395 9,800 -200 Level FlightAware ADS-B
Wed 10:36:07 PM 42.1930 -88.1440 130° Southeast 307 353 9,600 -764 Descending FlightAware ADS-B
Wed 10:36:27 PM 42.1710 -88.1180 139° Southeast 302 348 9,100 -1,527 Descending FlightAware ADS-B
Wed 10:37:02 PM 42.1340 -88.0760 140° Southeast 296 341 8,200 -1,400 Descending FlightAware ADS-B
Wed 10:37:27 PM 42.1090 -88.0470 139° Southeast 290 334 7,700 -1,500 Descending FlightAware ADS-B
Wed 10:37:42 PM 42.0980 -88.0280 128° Southeast 295 339 7,200 -1,600 Descending FlightAware ADS-B
Wed 10:37:57 PM 42.0920 -87.9970 105° East 294 338 6,900 -600 Descending FlightAware ADS-B
Wed 10:38:22 PM 42.0920 -87.9550 90° East 274 315 6,800 -150 Descending FlightAware ADS-B
Wed 10:38:37 PM 42.0910 -87.9310 93° East 260 299 6,800  Level FlightAware ADS-B
Wed 10:39:07 PM 42.0870 -87.8850 97° East 250 288 6,800  Level FlightAware ADS-B
Wed 10:39:22 PM 42.0850 -87.8640 97° East 249 287 6,800 -600 Level FlightAware ADS-B
Wed 10:39:47 PM 42.0810 -87.8240 98° East 247 284 6,400 -1,080 Descending FlightAware ADS-B
Wed 10:40:12 PM 42.0780 -87.7860 96° East 245 282 5,900 -1,309 Descending FlightAware ADS-B
Wed 10:40:42 PM 42.0720 -87.7400 100° East 242 278 5,200 -1,300 Descending FlightAware ADS-B
Wed 10:41:12 PM 42.0630 -87.6960 105° East 243 280 4,600 -1,200 Descending FlightAware ADS-B
Wed 10:41:27 PM 42.0570 -87.6770 113° Southeast 240 276 4,300 -1,200 Descending FlightAware ADS-B
Wed 10:41:42 PM 42.0450 -87.6630 139° Southeast 221 254 4,000 -1,200 Descending FlightAware ADS-B
Wed 10:41:57 PM 42.0300 -87.6580 166° South 209 241 3,700 -1,371 Descending FlightAware ADS-B
Wed 10:42:17 PM 42.0110 -87.6550 173° South 208 239 3,200 -1,200 Descending FlightAware ADS-B
Wed 10:42:37 PM 41.9980 -87.6620 202° Southwest 188 216 2,900 -686 Descending FlightAware ADS-B
Wed 10:42:52 PM 41.9910 -87.6790 241° Southwest 169 194 2,800 -150 Descending FlightAware ADS-B
Wed 10:43:17 PM 41.9850 -87.7020 251° West 162 186 2,800  Level FlightAware ADS-B
Wed 10:43:47 PM 41.9840 -87.7340 268° West 163 188 2,800 -500 Level FlightAware ADS-B
Wed 10:44:17 PM 41.9840 -87.7640 270° West 160 184 2,300 -873 Descending FlightAware ADS-B
Wed 10:44:42 PM 41.9840 -87.7880 270° West 151 174 2,000 -800 Descending FlightAware ADS-B
Wed 10:45:02 PM 41.9840 -87.8060 270° West 128 147 1,700 -667 Descending FlightAware ADS-B
Wed 10:45:27 PM 41.9840 -87.8240 270° West 114 131 1,500 -600 Descending FlightAware ADS-B
Wed 10:45:52 PM 41.9840 -87.8400 270° West 116 133 1,200 -600 Descending FlightAware ADS-B
Wed 10:46:17 PM 41.9840 -87.8590 270° West 125 144 1,000 -655 Descending FlightAware ADS-B
Wed 10:46:47 PM 41.9840 -87.8830 270° West 128 147 600 -800 Descending FlightAware ADS-B

Login

Don't have an account? Register now (free) for customized features, flight alerts, and more!